createdAt,value
2022-07-31T00:01:13.327Z,6.05
2022-07-31T00:03:41.313Z,4.50
2022-07-31T00:06:09.588Z,4.72
2022-07-31T00:08:37.511Z,5.08
2022-07-31T00:11:05.065Z,5.42
2022-07-31T00:13:58.090Z,7.33
2022-07-31T00:16:02.479Z,4.42
2022-07-31T00:18:30.019Z,4.15
2022-07-31T00:20:57.783Z,4.90
2022-07-31T00:23:25.509Z,4.30
2022-07-31T00:25:52.985Z,4.15
2022-07-31T00:28:20.602Z,5.15
2022-07-31T00:30:48.398Z,5.28
2022-07-31T00:33:15.963Z,4.95
2022-07-31T00:35:43.568Z,3.22
2022-07-31T00:38:27.620Z,4.60
2022-07-31T00:40:48.623Z,2.90
2022-07-31T00:43:18.196Z,4.42
2022-07-31T00:45:45.854Z,4.05
2022-07-31T00:48:15.320Z,5.35
2022-07-31T00:50:43.009Z,4.30
2022-07-31T00:53:10.645Z,3.37
2022-07-31T00:55:51.029Z,3.20
2022-07-31T00:58:07.878Z,4.72
2022-07-31T01:00:36.453Z,3.37
2022-07-31T01:03:05.477Z,5.15
2022-07-31T01:05:33.135Z,5.20
2022-07-31T01:08:00.772Z,4.42
2022-07-31T01:11:05.754Z,5.22
2022-07-31T01:13:49.583Z,4.55
2022-07-31T01:16:18.457Z,5.17
2022-07-31T01:18:48.090Z,3.87
2022-07-31T01:21:27.116Z,4.17
2022-07-31T01:24:03.153Z,4.75
2022-07-31T01:26:49.485Z,4.10
2022-07-31T01:29:42.046Z,3.72
2022-07-31T01:32:20.961Z,4.92
2022-07-31T01:35:04.883Z,7.00
2022-07-31T01:37:37.056Z,4.80
2022-07-31T01:40:16.787Z,3.72
2022-07-31T01:42:50.416Z,5.75
2022-07-31T01:45:20.842Z,5.50
2022-07-31T01:47:50.256Z,6.97
2022-07-31T01:50:42.230Z,5.40
2022-07-31T01:52:54.521Z,7.63
2022-07-31T01:55:24.585Z,4.08
2022-07-31T01:57:53.111Z,3.67
2022-07-31T02:00:33.627Z,6.20
2022-07-31T02:02:52.517Z,6.87
2022-07-31T02:05:24.133Z,7.97
2022-07-31T02:07:53.375Z,4.97
2022-07-31T02:10:24.745Z,4.72
2022-07-31T02:12:53.918Z,3.22
2022-07-31T02:15:22.670Z,3.90
2022-07-31T02:17:52.754Z,6.50
2022-07-31T02:20:24.794Z,5.37
2022-07-31T02:22:57.784Z,5.12
2022-07-31T02:25:27.352Z,8.25
2022-07-31T02:27:59.145Z,9.35
2022-07-31T02:30:38.354Z,5.12
2022-07-31T02:33:01.968Z,4.70
2022-07-31T02:35:31.098Z,4.37
2022-07-31T02:37:59.481Z,7.05
2022-07-31T02:40:27.560Z,5.90
2022-07-31T02:42:55.678Z,4.37
2022-07-31T02:45:24.178Z,4.87
2022-07-31T02:47:53.758Z,4.22
2022-07-31T02:50:22.187Z,10.13
2022-07-31T02:52:51.609Z,8.18
2022-07-31T02:55:20.678Z,7.62
2022-07-31T02:57:51.033Z,7.90
2022-07-31T03:00:26.368Z,6.37
2022-07-31T03:02:58.858Z,5.03
2022-07-31T03:05:31.039Z,10.00
2022-07-31T03:08:01.817Z,4.78
2022-07-31T03:10:30.011Z,5.00
2022-07-31T03:13:07.769Z,5.45
2022-07-31T03:15:41.076Z,5.58
2022-07-31T03:20:49.300Z,6.15
2022-07-31T03:23:25.986Z,5.70
2022-07-31T03:25:58.781Z,6.47
2022-07-31T03:28:28.002Z,7.03
2022-07-31T03:30:56.646Z,3.67
2022-07-31T03:33:26.489Z,21.62
2022-07-31T03:35:54.421Z,5.97
2022-07-31T03:38:39.211Z,4.28
2022-07-31T03:40:51.933Z,5.97
2022-07-31T03:43:21.559Z,5.45
2022-07-31T03:45:51.510Z,5.17
2022-07-31T03:48:19.534Z,7.70
2022-07-31T03:50:48.242Z,5.12
2022-07-31T03:53:24.109Z,3.80
2022-07-31T03:55:55.262Z,4.85
2022-07-31T03:58:25.633Z,6.58
2022-07-31T04:00:55.185Z,7.22
2022-07-31T04:03:23.247Z,8.70
2022-07-31T04:05:56.216Z,8.10
2022-07-31T04:08:25.178Z,9.30
2022-07-31T04:10:53.543Z,10.20
2022-07-31T04:13:23.008Z,8.85
2022-07-31T04:15:51.222Z,5.78
2022-07-31T04:18:19.425Z,8.68
2022-07-31T04:20:47.261Z,9.83
2022-07-31T04:23:14.754Z,6.92
2022-07-31T04:25:59.225Z,7.03
2022-07-31T04:28:28.710Z,5.80
2022-07-31T04:30:57.002Z,5.35
2022-07-31T04:33:24.866Z,7.53
2022-07-31T04:35:53.180Z,6.28
2022-07-31T04:38:21.326Z,5.62
2022-07-31T04:40:49.549Z,5.58
2022-07-31T04:43:17.633Z,4.92
2022-07-31T04:45:45.397Z,5.75
2022-07-31T04:48:13.077Z,6.47
2022-07-31T04:50:40.668Z,4.97
2022-07-31T04:53:08.485Z,6.92
2022-07-31T04:55:38.124Z,4.42
2022-07-31T04:58:06.032Z,7.53
2022-07-31T05:00:33.800Z,7.55
2022-07-31T05:03:01.343Z,7.47
2022-07-31T05:05:30.190Z,10.65
2022-07-31T05:07:58.816Z,9.85
2022-07-31T05:10:46.934Z,6.45
2022-07-31T05:13:16.659Z,9.20
2022-07-31T05:15:44.297Z,7.30
2022-07-31T05:18:12.400Z,10.28
2022-07-31T05:20:52.078Z,8.18
2022-07-31T05:23:26.269Z,8.38
2022-07-31T05:25:55.889Z,7.25
2022-07-31T05:28:29.705Z,8.18
2022-07-31T05:30:53.541Z,5.53
2022-07-31T05:33:21.176Z,5.97
2022-07-31T05:35:48.761Z,7.53
2022-07-31T05:38:16.500Z,5.62
2022-07-31T05:40:55.568Z,5.17
2022-07-31T05:43:43.174Z,4.95
2022-07-31T05:46:14.082Z,8.08
2022-07-31T05:48:41.909Z,4.30
2022-07-31T05:51:13.088Z,7.03
2022-07-31T05:53:42.138Z,7.50
2022-07-31T05:56:19.005Z,5.58
2022-07-31T05:58:51.311Z,5.87
2022-07-31T06:01:19.174Z,4.90
2022-07-31T06:03:51.559Z,4.65
2022-07-31T06:06:21.246Z,6.83
2022-07-31T06:08:49.990Z,5.37
2022-07-31T06:11:17.602Z,7.58
2022-07-31T06:13:45.176Z,10.20
2022-07-31T06:16:19.505Z,5.92
2022-07-31T06:18:47.111Z,11.05
2022-07-31T06:23:41.881Z,5.95
2022-07-31T06:26:17.248Z,5.05
2022-07-31T06:28:48.845Z,6.42
2022-07-31T06:31:20.021Z,6.12
2022-07-31T06:33:49.708Z,8.35
2022-07-31T06:36:18.863Z,5.62
2022-07-31T06:39:00.031Z,7.65
2022-07-31T06:41:46.881Z,6.08
2022-07-31T06:44:33.285Z,6.17
2022-07-31T06:47:23.748Z,6.72
2022-07-31T06:49:51.533Z,5.78
2022-07-31T06:52:19.575Z,5.35
2022-07-31T06:54:47.793Z,4.53
2022-07-31T06:57:15.442Z,5.03
2022-07-31T06:59:43.809Z,5.50
2022-07-31T07:02:12.017Z,4.53
2022-07-31T07:05:04.558Z,4.47
2022-07-31T07:07:10.623Z,5.28
2022-07-31T07:09:38.556Z,3.45
2022-07-31T07:12:07.356Z,3.92
2022-07-31T07:14:37.309Z,5.05
2022-07-31T07:17:06.835Z,4.05
2022-07-31T07:19:34.750Z,3.62
2022-07-31T07:22:02.608Z,3.17
2022-07-31T07:24:30.860Z,5.95
2022-07-31T07:27:00.414Z,4.62
2022-07-31T07:29:28.006Z,3.15
2022-07-31T07:31:55.737Z,3.47
2022-07-31T07:34:23.346Z,3.65
2022-07-31T07:36:51.014Z,3.55
2022-07-31T07:39:20.632Z,6.60
2022-07-31T07:41:48.545Z,4.55
2022-07-31T07:44:17.174Z,4.97
2022-07-31T07:46:45.140Z,5.05
2022-07-31T07:49:16.403Z,3.40
2022-07-31T07:51:59.458Z,5.40
2022-07-31T07:54:22.515Z,5.62
2022-07-31T07:57:20.013Z,7.45
2022-07-31T07:59:53.538Z,7.97
2022-07-31T08:02:40.764Z,5.87
2022-07-31T08:05:09.297Z,4.97
2022-07-31T08:07:42.478Z,4.55
2022-07-31T08:10:11.721Z,5.40
2022-07-31T08:12:47.169Z,4.37
2022-07-31T08:15:28.662Z,4.60
2022-07-31T08:18:10.345Z,4.33
2022-07-31T08:20:38.734Z,5.47
2022-07-31T08:23:06.639Z,5.12
2022-07-31T08:25:34.474Z,6.05
2022-07-31T08:28:03.258Z,6.00
2022-07-31T08:30:32.900Z,6.42
2022-07-31T08:33:01.096Z,5.08
2022-07-31T08:35:33.575Z,4.60
2022-07-31T08:38:04.295Z,4.87
2022-07-31T08:40:32.419Z,7.00
2022-07-31T08:43:01.789Z,5.08
2022-07-31T08:45:31.817Z,6.05
2022-07-31T08:48:09.693Z,4.72
2022-07-31T08:50:40.139Z,5.28
2022-07-31T08:53:14.754Z,5.08
2022-07-31T08:55:56.289Z,5.42
2022-07-31T08:58:14.327Z,5.53
2022-07-31T09:00:42.777Z,5.10
2022-07-31T09:03:11.204Z,13.48
2022-07-31T09:05:46.662Z,7.08
2022-07-31T09:08:15.832Z,5.75
2022-07-31T09:10:49.948Z,6.15
2022-07-31T09:13:18.109Z,7.12
2022-07-31T09:15:46.846Z,6.55
2022-07-31T09:18:21.443Z,5.80
2022-07-31T09:36:07.049Z,3.87
2022-07-31T09:38:40.335Z,4.37
2022-07-31T09:41:53.432Z,5.35
2022-07-31T09:44:02.338Z,6.10
2022-07-31T09:46:45.345Z,5.45
2022-07-31T09:49:14.316Z,5.30
2022-07-31T09:51:47.775Z,5.37
2022-07-31T09:54:26.080Z,10.00
2022-07-31T09:59:56.457Z,7.42
2022-07-31T10:02:26.732Z,5.12
2022-07-31T10:04:58.241Z,4.12
2022-07-31T10:07:31.773Z,3.92
2022-07-31T10:12:50.028Z,4.80
2022-07-31T10:15:19.901Z,4.73
2022-07-31T10:17:52.046Z,6.10
2022-07-31T10:20:39.304Z,5.33
2022-07-31T10:23:19.485Z,5.92
2022-07-31T10:25:54.183Z,5.12
2022-07-31T10:28:23.480Z,5.03
2022-07-31T10:30:51.594Z,5.33
2022-07-31T10:33:42.621Z,5.28
2022-07-31T10:36:11.774Z,5.05
2022-07-31T10:39:37.439Z,4.90
2022-07-31T10:42:35.423Z,5.00
2022-07-31T10:45:10.609Z,4.42
2022-07-31T10:47:40.721Z,5.00
2022-07-31T10:50:23.890Z,5.78
2022-07-31T10:53:15.002Z,7.95
2022-07-31T10:56:04.841Z,6.25
2022-07-31T10:58:52.211Z,6.40
2022-07-31T11:01:23.197Z,13.45
2022-07-31T11:04:04.666Z,7.47
2022-07-31T11:06:41.753Z,5.95
2022-07-31T11:09:29.294Z,6.20
2022-07-31T11:12:20.566Z,5.40
2022-07-31T11:14:50.082Z,4.93
2022-07-31T11:18:22.236Z,4.87
2022-07-31T11:20:24.114Z,5.37
2022-07-31T11:23:02.739Z,5.70
2022-07-31T11:25:37.071Z,5.47
2022-07-31T11:28:24.274Z,5.67
2022-07-31T11:30:59.163Z,4.58
2022-07-31T11:33:43.389Z,4.00
2022-07-31T11:36:20.419Z,4.97
2022-07-31T11:38:51.964Z,3.87
2022-07-31T11:41:23.819Z,4.10
2022-07-31T11:43:53.908Z,3.40
2022-07-31T11:46:29.891Z,4.20
2022-07-31T11:48:57.946Z,3.83
2022-07-31T11:51:27.190Z,5.33
2022-07-31T11:53:56.835Z,3.55
2022-07-31T11:56:27.561Z,3.67
2022-07-31T11:58:57.911Z,3.55
2022-07-31T12:01:28.504Z,4.50
2022-07-31T12:04:08.506Z,3.40
2022-07-31T12:06:27.296Z,3.70
2022-07-31T12:08:54.988Z,3.33
2022-07-31T12:11:23.582Z,3.60
2022-07-31T12:13:51.361Z,3.27
2022-07-31T12:16:19.276Z,3.55
2022-07-31T12:18:56.430Z,3.65
2022-07-31T12:21:33.663Z,3.55
2022-07-31T12:24:02.990Z,3.08
2022-07-31T12:26:33.510Z,3.40
2022-07-31T12:29:11.089Z,3.15
2022-07-31T12:31:53.719Z,3.67
2022-07-31T12:34:40.847Z,2.92
2022-07-31T12:37:15.382Z,2.25
2022-07-31T12:39:59.966Z,5.08
2022-07-31T12:42:30.446Z,2.25
2022-07-31T12:45:18.529Z,2.20
2022-07-31T12:47:34.594Z,3.47
2022-07-31T12:50:03.636Z,4.03
2022-07-31T12:52:33.806Z,5.28
2022-07-31T12:55:04.212Z,4.75
2022-07-31T12:57:31.822Z,4.37
2022-07-31T12:59:59.164Z,4.10
2022-07-31T13:02:26.888Z,6.35
2022-07-31T13:04:54.614Z,3.30
2022-07-31T13:07:22.500Z,4.45
2022-07-31T13:10:19.759Z,4.25
2022-07-31T13:12:19.823Z,3.10
2022-07-31T13:14:47.616Z,5.00
2022-07-31T13:17:15.255Z,3.20
2022-07-31T13:19:42.781Z,8.85
2022-07-31T13:22:10.402Z,2.50
2022-07-31T13:24:38.209Z,2.90
2022-07-31T13:27:06.304Z,2.70
2022-07-31T13:29:34.344Z,3.87
2022-07-31T13:32:02.187Z,4.03
2022-07-31T13:34:29.731Z,3.62
2022-07-31T13:36:57.463Z,2.55
2022-07-31T13:39:25.035Z,4.10
2022-07-31T13:41:52.793Z,2.60
2022-07-31T13:44:20.788Z,3.02
2022-07-31T13:46:48.480Z,2.83
2022-07-31T13:49:16.392Z,3.20
2022-07-31T13:51:44.929Z,4.12
2022-07-31T13:54:12.861Z,2.67
2022-07-31T13:56:43.288Z,2.70
2022-07-31T13:59:12.776Z,2.27
2022-07-31T14:02:04.241Z,2.60
2022-07-31T14:06:42.592Z,2.05
2022-07-31T14:09:12.228Z,2.00
2022-07-31T14:11:39.839Z,2.27
2022-07-31T14:14:07.388Z,2.95
2022-07-31T14:16:34.972Z,3.72
2022-07-31T14:19:03.151Z,2.02
2022-07-31T14:21:30.701Z,4.62
2022-07-31T14:23:59.034Z,2.52
2022-07-31T14:26:26.615Z,2.83
2022-07-31T14:28:54.222Z,2.62
2022-07-31T14:31:21.937Z,2.35
2022-07-31T14:33:49.488Z,3.35
2022-07-31T14:36:17.094Z,2.52
2022-07-31T14:38:45.114Z,2.30
2022-07-31T14:41:12.858Z,1.95
2022-07-31T14:43:40.334Z,2.27
2022-07-31T14:46:07.966Z,2.55
2022-07-31T14:48:35.479Z,3.17
2022-07-31T14:51:03.135Z,2.80
2022-07-31T14:53:30.932Z,3.70
2022-07-31T14:56:04.011Z,2.50
2022-07-31T14:58:28.309Z,5.33
2022-07-31T15:00:55.973Z,4.33
2022-07-31T15:03:23.682Z,4.50
2022-07-31T15:06:39.801Z,2.70
2022-07-31T15:08:20.954Z,3.27
2022-07-31T15:10:48.718Z,2.47
2022-07-31T15:13:16.442Z,2.55
2022-07-31T15:15:44.865Z,2.17
2022-07-31T15:18:12.571Z,2.00
2022-07-31T15:20:40.354Z,3.90
2022-07-31T15:23:08.362Z,2.42
2022-07-31T15:25:36.105Z,2.60
2022-07-31T15:28:04.060Z,1.72
2022-07-31T15:30:32.045Z,2.47
2022-07-31T15:32:59.679Z,1.70
2022-07-31T15:35:27.587Z,2.35
2022-07-31T15:37:55.312Z,1.65
2022-07-31T15:40:23.387Z,2.08
2022-07-31T15:42:50.955Z,2.15
2022-07-31T15:45:19.865Z,2.80
2022-07-31T15:47:48.566Z,2.50
2022-07-31T15:50:19.722Z,3.52
2022-07-31T15:52:49.152Z,3.35
2022-07-31T15:55:17.744Z,2.20
2022-07-31T15:57:46.211Z,3.35
2022-07-31T16:00:14.978Z,2.40
2022-07-31T16:02:45.391Z,3.17
2022-07-31T16:05:21.534Z,3.20
2022-07-31T16:08:29.264Z,2.98
2022-07-31T16:10:17.680Z,4.45
2022-07-31T16:12:48.496Z,3.50
2022-07-31T16:15:16.958Z,3.60
2022-07-31T16:17:47.152Z,2.50
2022-07-31T16:20:20.744Z,3.95
2022-07-31T16:22:54.366Z,4.15
2022-07-31T16:25:23.947Z,2.42
2022-07-31T16:27:51.828Z,2.95
2022-07-31T16:30:19.721Z,2.62
2022-07-31T16:32:47.739Z,2.87
2022-07-31T16:35:15.426Z,3.15
2022-07-31T16:37:51.951Z,4.72
2022-07-31T16:40:28.214Z,3.33
2022-07-31T16:42:44.344Z,2.55
2022-07-31T16:45:12.051Z,2.33
2022-07-31T16:47:51.001Z,3.77
2022-07-31T16:50:10.350Z,4.22
2022-07-31T16:52:37.993Z,3.05
2022-07-31T16:55:06.780Z,3.02
2022-07-31T16:57:34.460Z,3.20
2022-07-31T17:00:01.860Z,4.95
2022-07-31T17:02:29.745Z,8.48
2022-07-31T17:04:57.533Z,4.35
2022-07-31T17:07:25.358Z,4.67
2022-07-31T17:09:53.382Z,4.28
2022-07-31T17:12:21.114Z,5.30
2022-07-31T17:14:49.421Z,5.25
2022-07-31T17:17:18.453Z,4.00
2022-07-31T17:19:47.411Z,4.78
2022-07-31T17:22:17.732Z,4.58
2022-07-31T17:24:46.870Z,11.93
2022-07-31T17:27:14.530Z,4.58
2022-07-31T17:29:42.209Z,3.70
2022-07-31T17:32:11.114Z,3.20
2022-07-31T17:34:40.122Z,5.47
2022-07-31T17:37:08.369Z,5.62
2022-07-31T17:39:36.649Z,5.33
2022-07-31T17:42:04.574Z,4.83
2022-07-31T17:44:32.353Z,4.25
2022-07-31T17:46:59.885Z,8.70
2022-07-31T17:49:29.565Z,5.85
2022-07-31T17:51:59.234Z,6.35
2022-07-31T17:54:28.142Z,6.37
2022-07-31T17:56:56.088Z,7.30
2022-07-31T17:59:23.947Z,8.20
2022-07-31T18:01:53.664Z,23.87
2022-07-31T18:04:21.635Z,23.12
2022-07-31T18:06:54.197Z,20.82
2022-07-31T18:09:21.262Z,14.10
2022-07-31T18:11:50.126Z,12.73
2022-07-31T18:14:18.189Z,17.77
2022-07-31T18:16:46.715Z,13.50
2022-07-31T18:19:15.222Z,8.60
2022-07-31T18:21:42.626Z,9.33
2022-07-31T18:24:10.620Z,6.72
2022-07-31T18:26:38.667Z,5.20
2022-07-31T18:29:06.336Z,7.25
2022-07-31T18:31:35.904Z,4.58
2022-07-31T18:34:04.849Z,3.08
2022-07-31T18:36:34.420Z,3.55
2022-07-31T18:39:02.579Z,3.83
2022-07-31T18:41:30.400Z,2.60
2022-07-31T18:43:58.070Z,3.65
2022-07-31T18:46:27.347Z,3.05
2022-07-31T18:48:56.177Z,3.20
2022-07-31T18:51:25.729Z,3.08
2022-07-31T18:53:55.257Z,3.98
2022-07-31T18:56:24.769Z,2.72
2022-07-31T18:58:53.789Z,2.47
2022-07-31T19:01:21.728Z,2.47
2022-07-31T19:03:50.173Z,3.98
2022-07-31T19:06:19.134Z,2.72
2022-07-31T19:08:48.718Z,3.45
2022-07-31T19:11:16.372Z,3.67
2022-07-31T19:13:43.938Z,3.02
2022-07-31T19:16:11.518Z,3.15
2022-07-31T19:18:39.941Z,3.72
2022-07-31T19:21:19.100Z,5.05
2022-07-31T19:23:38.109Z,3.30
2022-07-31T19:26:05.890Z,2.77
2022-07-31T19:28:33.629Z,4.85
2022-07-31T19:31:01.801Z,2.60
2022-07-31T19:33:29.637Z,4.20
2022-07-31T19:36:01.879Z,3.20
2022-07-31T19:38:27.082Z,4.03
2022-07-31T19:40:55.042Z,2.83
2022-07-31T19:43:22.698Z,5.12
2022-07-31T19:45:58.701Z,3.17
2022-07-31T19:48:19.979Z,5.83
2022-07-31T19:50:47.963Z,3.85
2022-07-31T19:53:15.724Z,3.55
2022-07-31T19:55:43.328Z,4.37
2022-07-31T19:58:11.134Z,4.90
2022-07-31T20:00:38.918Z,4.70
2022-07-31T20:03:06.703Z,4.37
2022-07-31T20:05:34.522Z,3.85
2022-07-31T20:08:02.286Z,4.28
2022-07-31T20:10:30.191Z,5.83
2022-07-31T20:12:57.946Z,5.53
2022-07-31T20:15:25.634Z,3.25
2022-07-31T20:17:53.510Z,5.00
2022-07-31T20:20:20.937Z,4.83
2022-07-31T20:22:48.624Z,5.00
2022-07-31T20:25:20.421Z,3.58
2022-07-31T20:27:46.182Z,3.47
2022-07-31T20:30:13.958Z,6.12
2022-07-31T20:32:48.527Z,3.90
2022-07-31T20:35:33.138Z,3.62
2022-07-31T20:37:40.595Z,4.37
2022-07-31T20:40:08.839Z,6.40
2022-07-31T20:42:37.021Z,4.78
2022-07-31T20:45:06.084Z,9.03
2022-07-31T20:47:33.764Z,5.72
2022-07-31T20:50:01.699Z,6.25
2022-07-31T20:52:29.519Z,6.20
2022-07-31T20:54:57.308Z,4.53
2022-07-31T20:57:25.165Z,5.55
2022-07-31T20:59:53.290Z,6.97
2022-07-31T21:02:21.396Z,11.03
2022-07-31T21:04:49.033Z,7.50
2022-07-31T21:07:16.816Z,6.33
2022-07-31T21:09:44.707Z,6.45
2022-07-31T21:12:12.405Z,6.35
2022-07-31T21:14:40.158Z,4.03
2022-07-31T21:17:07.827Z,9.73
2022-07-31T21:19:35.639Z,6.12
2022-07-31T21:22:03.747Z,6.40
2022-07-31T21:24:32.439Z,5.95
2022-07-31T21:27:01.114Z,5.70
2022-07-31T21:29:29.441Z,7.25
2022-07-31T21:31:58.498Z,6.92
2022-07-31T21:34:26.827Z,7.05
2022-07-31T21:36:54.729Z,7.80
2022-07-31T21:39:24.606Z,5.92
2022-07-31T21:41:53.083Z,5.70
2022-07-31T21:44:21.019Z,9.53
2022-07-31T21:46:51.731Z,5.12
2022-07-31T21:49:19.858Z,6.05
2022-07-31T21:51:48.191Z,7.22
2022-07-31T21:54:17.463Z,4.30
2022-07-31T21:56:45.346Z,5.22
2022-07-31T21:59:14.783Z,4.70
2022-07-31T22:01:58.039Z,5.55
2022-07-31T22:04:12.644Z,5.55
2022-07-31T22:06:59.054Z,5.90
2022-07-31T22:09:27.627Z,5.30
2022-07-31T22:12:05.737Z,5.65
2022-07-31T22:14:43.780Z,4.28
2022-07-31T22:17:13.035Z,3.75
2022-07-31T22:19:47.194Z,3.98
2022-07-31T22:22:31.245Z,4.10
2022-07-31T22:24:59.792Z,3.45
2022-07-31T22:27:46.455Z,3.83
2022-07-31T22:30:32.474Z,4.22
2022-07-31T22:33:00.761Z,5.47
2022-07-31T22:36:00.366Z,4.95
2022-07-31T22:38:21.044Z,8.70
2022-07-31T22:40:49.126Z,4.87
2022-07-31T22:44:05.618Z,4.97
2022-07-31T22:45:46.636Z,6.20
2022-07-31T22:48:17.105Z,7.70
2022-07-31T22:50:44.698Z,5.95
2022-07-31T22:53:12.197Z,7.55
2022-07-31T22:55:40.340Z,4.37
2022-07-31T22:58:10.025Z,4.12
2022-07-31T23:00:38.439Z,3.77
2022-07-31T23:03:06.067Z,4.70
2022-07-31T23:06:28.213Z,6.90
2022-07-31T23:08:03.740Z,7.12
2022-07-31T23:10:31.518Z,4.47
2022-07-31T23:12:59.299Z,6.33
2022-07-31T23:15:26.937Z,7.08
2022-07-31T23:17:54.571Z,4.78
2022-07-31T23:20:22.376Z,5.72
2022-07-31T23:22:50.636Z,5.45
2022-07-31T23:25:20.265Z,9.18
2022-07-31T23:27:48.123Z,5.22
2022-07-31T23:30:15.796Z,6.03
2022-07-31T23:32:43.537Z,5.03
2022-07-31T23:35:11.223Z,6.65
2022-07-31T23:37:38.820Z,4.62
2022-07-31T23:40:07.665Z,7.40
2022-07-31T23:42:37.939Z,3.77
2022-07-31T23:45:12.464Z,4.50
2022-07-31T23:47:45.581Z,3.50
2022-07-31T23:50:10.472Z,7.17
2022-07-31T23:52:38.318Z,2.67
2022-07-31T23:55:06.416Z,2.80
2022-07-31T23:57:34.224Z,4.55
